createdAt,value
2018-12-16T00:00:33.226Z,79.94
2018-12-16T00:01:31.674Z,78.91
2018-12-16T00:02:33.196Z,78.49
2018-12-16T00:03:34.211Z,79.05
2018-12-16T00:04:34.226Z,79.67
2018-12-16T00:05:32.679Z,79.46
2018-12-16T00:06:33.195Z,79.67
2018-12-16T00:07:33.712Z,79.67
2018-12-16T00:08:33.225Z,80.71
2018-12-16T00:09:31.591Z,79.88
2018-12-16T00:10:37.235Z,79.98
2018-12-16T00:11:31.570Z,79.67
2018-12-16T00:12:32.700Z,79.46
2018-12-16T00:13:31.548Z,79.46
2018-12-16T00:14:32.220Z,79.57
2018-12-16T00:15:34.197Z,79.81
2018-12-16T00:16:32.689Z,80.96
2018-12-16T00:17:36.249Z,80.33
2018-12-16T00:18:32.499Z,81.16
2018-12-16T00:19:31.483Z,80.23
2018-12-16T00:20:33.234Z,80.44
2018-12-16T00:21:31.465Z,80.44
2018-12-16T00:22:31.453Z,80.54
2018-12-16T00:23:32.194Z,80.54
2018-12-16T00:24:32.190Z,80.96
2018-12-16T00:25:32.193Z,80.61
2018-12-16T00:26:35.224Z,80.71
2018-12-16T00:27:32.725Z,81.34
2018-12-16T00:28:31.411Z,79.46
2018-12-16T00:29:35.235Z,79.67
2018-12-16T00:30:32.770Z,79.57
2018-12-16T00:31:33.190Z,81.45
2018-12-16T00:32:32.192Z,79.53
2018-12-16T00:33:32.196Z,80.40
2018-12-16T00:34:32.244Z,79.67
2018-12-16T00:35:32.192Z,79.91
2018-12-16T00:36:33.245Z,79.81
2018-12-16T00:37:34.253Z,79.71
2018-12-16T00:38:32.242Z,79.98
2018-12-16T00:39:33.227Z,80.33
2018-12-16T00:40:33.192Z,80.85
2018-12-16T00:41:32.202Z,81.45
2018-12-16T00:42:31.234Z,81.27
2018-12-16T00:43:33.211Z,80.61
2018-12-16T00:44:31.211Z,80.92
2018-12-16T00:45:31.203Z,80.09
2018-12-16T00:46:33.193Z,81.13
2018-12-16T00:47:31.191Z,79.74
2018-12-16T00:48:32.767Z,79.46
2018-12-16T00:49:32.703Z,80.99
2018-12-16T00:50:31.155Z,79.49
2018-12-16T00:51:34.195Z,77.76
2018-12-16T00:52:36.414Z,77.76
2018-12-16T00:53:32.150Z,78.49
2018-12-16T00:54:31.115Z,77.97
2018-12-16T00:55:31.691Z,78.42
2018-12-16T00:56:31.091Z,78.77
2018-12-16T00:57:31.079Z,80.13
2018-12-16T00:58:31.079Z,80.13
2018-12-16T00:59:31.083Z,79.46
2018-12-16T01:00:31.090Z,79.15
2018-12-16T01:01:31.042Z,79.15
2018-12-16T01:02:31.046Z,78.52
2018-12-16T01:03:31.028Z,77.58
2018-12-16T01:04:31.015Z,77.69
2018-12-16T01:05:30.998Z,78.11
2018-12-16T01:06:30.994Z,76.96
2018-12-16T01:07:30.979Z,77.23
2018-12-16T01:08:31.665Z,77.17
2018-12-16T01:09:30.983Z,76.75
2018-12-16T01:10:30.951Z,77.80
2018-12-16T01:11:30.982Z,76.57
2018-12-16T01:12:30.914Z,78.04
2018-12-16T01:13:30.908Z,79.71
2018-12-16T01:14:30.898Z,78.94
2018-12-16T01:15:30.885Z,77.62
2018-12-16T01:16:30.876Z,78.14
2018-12-16T01:17:30.885Z,79.50
2018-12-16T01:18:30.867Z,78.00
2018-12-16T01:19:30.854Z,77.00
2018-12-16T01:20:31.721Z,77.17
2018-12-16T01:21:31.684Z,76.57
2018-12-16T01:22:30.861Z,76.43
2018-12-16T01:23:30.809Z,77.10
2018-12-16T01:24:31.679Z,76.37
2018-12-16T01:25:30.783Z,76.61
2018-12-16T01:26:30.773Z,76.72
2018-12-16T01:27:30.765Z,77.69
2018-12-16T01:28:30.753Z,78.18
2018-12-16T01:29:30.739Z,78.18
2018-12-16T01:30:30.737Z,77.62
2018-12-16T01:31:31.718Z,77.62
2018-12-16T01:32:30.711Z,78.04
2018-12-16T01:33:30.713Z,75.43
2018-12-16T01:34:30.691Z,76.79
2018-12-16T01:35:30.679Z,76.72
2018-12-16T01:36:30.672Z,76.26
2018-12-16T01:37:30.706Z,76.26
2018-12-16T01:38:30.655Z,77.72
2018-12-16T01:39:30.639Z,76.96
2018-12-16T01:40:31.186Z,75.26
2018-12-16T01:41:30.641Z,74.66
2018-12-16T01:42:30.618Z,74.15
2018-12-16T01:43:30.600Z,73.93
2018-12-16T01:44:30.609Z,73.97
2018-12-16T01:45:30.581Z,74.63
2018-12-16T01:46:30.576Z,75.15
2018-12-16T01:47:31.182Z,76.20
2018-12-16T01:48:30.601Z,75.15
2018-12-16T01:49:34.201Z,75.26
2018-12-16T01:50:33.225Z,75.15
2018-12-16T01:51:33.194Z,75.46
2018-12-16T01:52:31.205Z,76.26
2018-12-16T01:53:30.495Z,73.97
2018-12-16T01:54:30.476Z,74.18
2018-12-16T01:55:30.509Z,73.76
2018-12-16T01:56:31.166Z,73.76
2018-12-16T01:57:30.483Z,73.97
2018-12-16T01:58:30.444Z,74.01
2018-12-16T01:59:31.189Z,74.21
2018-12-16T02:00:30.442Z,74.52
2018-12-16T02:01:30.409Z,74.94
2018-12-16T02:02:30.401Z,73.97
2018-12-16T02:03:30.418Z,74.94
2018-12-16T02:04:30.421Z,72.96
2018-12-16T02:05:30.371Z,73.79
2018-12-16T02:06:30.359Z,73.52
2018-12-16T02:07:30.353Z,73.69
2018-12-16T02:08:30.349Z,74.01
2018-12-16T02:09:31.198Z,73.90
2018-12-16T02:10:30.351Z,73.30
2018-12-16T02:11:30.322Z,73.90
2018-12-16T02:12:30.309Z,74.04
2018-12-16T02:13:30.279Z,73.38
2018-12-16T02:14:32.216Z,73.58
2018-12-16T02:15:30.266Z,73.38
2018-12-16T02:16:30.266Z,73.48
2018-12-16T02:17:30.245Z,72.99
2018-12-16T02:18:30.251Z,72.99
2018-12-16T02:19:30.224Z,73.72
2018-12-16T02:20:30.217Z,72.78
2018-12-16T02:21:30.211Z,72.99
2018-12-16T02:22:30.192Z,73.52
2018-12-16T02:23:30.211Z,73.07
2018-12-16T02:24:30.697Z,73.07
2018-12-16T02:25:30.176Z,73.07
2018-12-16T02:26:30.152Z,72.58
2018-12-16T02:27:30.159Z,72.16
2018-12-16T02:28:31.126Z,72.36
2018-12-16T02:29:30.132Z,71.74
2018-12-16T02:30:30.110Z,71.95
2018-12-16T02:31:30.115Z,72.68
2018-12-16T02:32:30.087Z,71.95
2018-12-16T02:33:30.086Z,71.64
2018-12-16T02:34:30.723Z,72.16
2018-12-16T02:35:30.720Z,71.01
2018-12-16T02:36:30.690Z,71.64
2018-12-16T02:37:30.035Z,71.53
2018-12-16T02:38:30.058Z,71.22
2018-12-16T02:39:30.027Z,70.70
2018-12-16T02:40:30.691Z,69.44
2018-12-16T02:41:30.683Z,70.17
2018-12-16T02:42:29.998Z,69.34
2018-12-16T02:43:29.976Z,69.34
2018-12-16T02:44:31.689Z,68.92
2018-12-16T02:45:29.958Z,69.16
2018-12-16T02:46:30.679Z,68.43
2018-12-16T02:47:29.948Z,69.58
2018-12-16T02:48:29.926Z,69.86
2018-12-16T02:49:30.697Z,69.86
2018-12-16T02:50:29.901Z,68.82
2018-12-16T02:51:29.916Z,68.71
2018-12-16T02:52:29.908Z,67.14
2018-12-16T02:53:30.695Z,66.00
2018-12-16T02:54:29.870Z,65.81
2018-12-16T02:55:29.875Z,67.07
2018-12-16T02:56:29.855Z,67.31
2018-12-16T02:57:29.830Z,67.07
2018-12-16T02:58:29.837Z,66.86
2018-12-16T02:59:29.843Z,65.30
2018-12-16T03:00:29.801Z,64.25
2018-12-16T03:01:30.688Z,64.22
2018-12-16T03:02:31.721Z,61.01
2018-12-16T03:03:29.789Z,61.64
2018-12-16T03:04:29.764Z,61.43
2018-12-16T03:05:29.790Z,62.48
2018-12-16T03:06:29.741Z,61.32
2018-12-16T03:07:29.775Z,58.92
2018-12-16T03:08:29.733Z,59.76
2018-12-16T03:09:29.702Z,60.91
2018-12-16T03:10:29.700Z,61.15
2018-12-16T03:11:29.683Z,61.40
2018-12-16T03:12:29.675Z,60.57
2018-12-16T03:13:29.668Z,59.13
2018-12-16T03:14:29.660Z,60.49
2018-12-16T03:15:30.173Z,59.23
2018-12-16T03:16:29.673Z,61.11
2018-12-16T03:17:29.646Z,59.76
2018-12-16T03:18:30.198Z,59.58
2018-12-16T03:19:29.601Z,61.11
2018-12-16T03:20:29.587Z,61.43
2018-12-16T03:21:29.616Z,60.38
2018-12-16T03:22:30.243Z,60.38
2018-12-16T03:23:29.564Z,60.46
2018-12-16T03:24:29.554Z,59.23
2018-12-16T03:25:29.559Z,59.65
2018-12-16T03:26:35.813Z,60.38
2018-12-16T03:27:30.543Z,59.97
2018-12-16T03:28:29.522Z,59.76
2018-12-16T03:29:30.209Z,60.17
2018-12-16T03:30:29.527Z,59.65
2018-12-16T03:31:29.478Z,59.13
2018-12-16T03:32:29.487Z,59.55
2018-12-16T03:33:30.206Z,59.97
2018-12-16T03:34:30.186Z,59.65
2018-12-16T03:35:29.454Z,59.86
2018-12-16T03:36:29.433Z,59.23
2018-12-16T03:37:29.417Z,60.17
2018-12-16T03:38:29.422Z,59.86
2018-12-16T03:39:29.411Z,59.05
2018-12-16T03:40:30.189Z,60.28
2018-12-16T03:41:29.373Z,59.65
2018-12-16T03:42:29.388Z,59.86
2018-12-16T03:43:29.389Z,59.58
2018-12-16T03:44:29.347Z,59.76
2018-12-16T03:45:30.171Z,60.17
2018-12-16T03:46:29.316Z,61.56
2018-12-16T03:47:29.312Z,61.64
2018-12-16T03:48:30.195Z,61.08
2018-12-16T03:49:30.200Z,60.98
2018-12-16T03:50:29.287Z,61.92
2018-12-16T03:51:29.267Z,62.55
2018-12-16T03:52:30.184Z,63.35
2018-12-16T03:53:29.260Z,63.70
2018-12-16T03:54:29.259Z,63.28
2018-12-16T03:55:29.222Z,63.70
2018-12-16T03:56:29.212Z,64.29
2018-12-16T03:57:29.202Z,64.95
2018-12-16T03:58:29.180Z,65.89
2018-12-16T03:59:29.179Z,66.31
2018-12-16T04:01:22.785Z,67.88
2018-12-16T04:02:21.818Z,68.08
2018-12-16T04:03:21.796Z,67.59
2018-12-16T04:04:21.785Z,68.85
2018-12-16T04:05:21.780Z,68.74
2018-12-16T04:06:21.790Z,69.16
2018-12-16T04:07:21.761Z,69.79
2018-12-16T04:08:21.797Z,69.13
2018-12-16T04:09:21.733Z,69.89
2018-12-16T04:10:21.750Z,69.23
2018-12-16T04:11:21.722Z,69.23
2018-12-16T04:12:21.711Z,76.09
2018-12-16T04:13:22.255Z,78.21
2018-12-16T04:14:21.698Z,68.82
2018-12-16T04:15:21.672Z,69.00
2018-12-16T04:16:21.657Z,72.41
2018-12-16T04:17:21.670Z,71.51
2018-12-16T04:18:21.652Z,70.20
2018-12-16T04:19:21.672Z,68.47
2018-12-16T04:20:21.661Z,63.69
2018-12-16T04:21:21.612Z,61.95
2018-12-16T04:22:21.610Z,65.23
2018-12-16T04:23:27.440Z,65.47
2018-12-16T04:24:22.595Z,65.61
2018-12-16T04:25:22.260Z,67.85
2018-12-16T04:26:21.595Z,68.30
2018-12-16T04:27:21.550Z,69.76
2018-12-16T04:28:21.550Z,69.87
2018-12-16T04:29:21.582Z,70.60
2018-12-16T04:30:21.526Z,70.91
2018-12-16T04:31:21.518Z,70.11
2018-12-16T04:32:21.496Z,70.94
2018-12-16T04:33:21.488Z,70.76
2018-12-16T04:34:21.476Z,71.95
2018-12-16T04:35:21.474Z,72.44
2018-12-16T04:36:21.455Z,72.23
2018-12-16T04:37:21.436Z,73.20
2018-12-16T04:38:21.469Z,73.52
2018-12-16T04:39:21.437Z,72.16
2018-12-16T04:40:21.420Z,72.78
2018-12-16T04:41:21.409Z,73.41
2018-12-16T04:42:23.235Z,73.48
2018-12-16T04:43:22.240Z,73.27
2018-12-16T04:44:21.372Z,73.52
2018-12-16T04:45:21.363Z,74.14
2018-12-16T04:46:21.353Z,73.27
2018-12-16T04:47:21.332Z,73.07
2018-12-16T04:48:21.323Z,73.07
2018-12-16T04:49:21.335Z,72.44
2018-12-16T04:50:21.303Z,72.33
2018-12-16T04:51:21.296Z,72.85
2018-12-16T04:52:21.293Z,73.17
2018-12-16T04:53:21.282Z,73.83
2018-12-16T04:54:21.269Z,74.63
2018-12-16T04:55:21.256Z,73.17
2018-12-16T04:56:21.245Z,72.54
2018-12-16T04:57:22.234Z,71.01
2018-12-16T04:58:21.227Z,72.26
2018-12-16T04:59:22.215Z,73.20
2018-12-16T05:00:21.206Z,71.64
2018-12-16T05:01:21.190Z,71.19
2018-12-16T05:02:21.759Z,70.59
2018-12-16T05:03:22.796Z,71.11
2018-12-16T05:04:21.159Z,71.74
2018-12-16T05:05:21.148Z,72.36
2018-12-16T05:06:21.748Z,73.41
2018-12-16T05:07:21.123Z,72.78
2018-12-16T05:08:21.122Z,73.52
2018-12-16T05:09:22.756Z,72.58
2018-12-16T05:10:21.124Z,72.78
2018-12-16T05:11:21.098Z,73.52
2018-12-16T05:12:21.087Z,72.05
2018-12-16T05:13:21.058Z,71.22
2018-12-16T05:14:21.062Z,72.05
2018-12-16T05:15:21.070Z,71.42
2018-12-16T05:16:21.066Z,72.78
2018-12-16T05:17:21.734Z,72.47
2018-12-16T05:18:21.738Z,71.98
2018-12-16T05:19:21.029Z,72.40
2018-12-16T05:20:21.746Z,73.41
2018-12-16T05:21:21.747Z,72.89
2018-12-16T05:22:22.243Z,71.95
2018-12-16T05:23:20.960Z,71.29
2018-12-16T05:24:20.963Z,71.64
2018-12-16T05:25:20.939Z,72.05
2018-12-16T05:26:20.940Z,70.87
2018-12-16T05:27:21.743Z,70.90
2018-12-16T05:28:20.938Z,70.80
2018-12-16T05:29:21.747Z,71.22
2018-12-16T05:30:20.897Z,71.53
2018-12-16T05:31:21.741Z,71.84
2018-12-16T05:32:20.878Z,72.68
2018-12-16T05:33:22.789Z,72.89
2018-12-16T05:34:20.854Z,72.13
2018-12-16T05:35:20.832Z,72.64
2018-12-16T05:36:20.826Z,70.45
2018-12-16T05:37:21.798Z,69.54
2018-12-16T05:38:20.826Z,71.01
2018-12-16T05:39:20.797Z,71.36
2018-12-16T05:40:20.797Z,71.67
2018-12-16T05:41:20.774Z,71.42
2018-12-16T05:42:20.769Z,70.73
2018-12-16T05:43:20.763Z,70.80
2018-12-16T05:44:20.747Z,71.67
2018-12-16T05:45:20.728Z,71.11
2018-12-16T05:46:20.726Z,72.58
2018-12-16T05:47:21.711Z,72.36
2018-12-16T05:48:20.700Z,72.26
2018-12-16T05:49:20.685Z,72.36
2018-12-16T05:50:21.257Z,71.50
2018-12-16T05:51:20.661Z,72.16
2018-12-16T05:52:20.669Z,73.62
2018-12-16T05:53:20.655Z,73.90
2018-12-16T05:54:21.247Z,74.32
2018-12-16T05:55:21.250Z,72.02
2018-12-16T05:56:20.624Z,70.98
2018-12-16T05:57:20.604Z,72.02
2018-12-16T05:58:20.600Z,74.01
2018-12-16T05:59:20.602Z,72.96
2018-12-16T06:00:20.574Z,72.19
2018-12-16T06:01:20.567Z,72.19
2018-12-16T06:02:22.250Z,71.78
2018-12-16T06:03:20.549Z,71.43
2018-12-16T06:04:20.534Z,71.22
2018-12-16T06:05:20.524Z,70.07
2018-12-16T06:06:20.520Z,69.07
2018-12-16T06:07:20.495Z,69.48
2018-12-16T06:08:20.492Z,70.98
2018-12-16T06:09:20.487Z,70.87
2018-12-16T06:10:20.484Z,71.01
2018-12-16T06:11:21.225Z,72.26
2018-12-16T06:12:21.246Z,70.59
2018-12-16T06:13:20.479Z,70.70
2018-12-16T06:14:20.437Z,70.70
2018-12-16T06:15:20.431Z,72.40
2018-12-16T06:16:20.419Z,71.64
2018-12-16T06:17:20.408Z,71.88
2018-12-16T06:18:20.384Z,72.68
2018-12-16T06:19:21.240Z,71.53
2018-12-16T06:20:20.392Z,72.19
2018-12-16T06:21:20.348Z,73.02
2018-12-16T06:22:20.351Z,74.49
2018-12-16T06:23:20.331Z,72.68
2018-12-16T06:24:20.317Z,72.36
2018-12-16T06:25:20.322Z,72.71
2018-12-16T06:26:20.303Z,72.71
2018-12-16T06:27:20.286Z,72.50
2018-12-16T06:28:20.278Z,72.71
2018-12-16T06:29:20.276Z,72.71
2018-12-16T06:30:20.266Z,73.55
2018-12-16T06:31:21.248Z,73.75
2018-12-16T06:32:20.262Z,70.52
2018-12-16T06:33:20.230Z,71.25
2018-12-16T06:34:21.832Z,71.14
2018-12-16T06:35:20.206Z,71.67
2018-12-16T06:36:20.203Z,71.04
2018-12-16T06:37:20.194Z,72.22
2018-12-16T06:38:21.795Z,71.91
2018-12-16T06:39:20.744Z,73.06
2018-12-16T06:40:20.155Z,72.64
2018-12-16T06:41:20.142Z,72.96
2018-12-16T06:42:20.133Z,72.53
2018-12-16T06:43:20.131Z,72.64
2018-12-16T06:44:20.136Z,74.00
2018-12-16T06:45:20.099Z,74.42
2018-12-16T06:46:20.097Z,73.44
2018-12-16T06:47:20.080Z,73.13
2018-12-16T06:48:20.065Z,72.71
2018-12-16T06:49:20.056Z,73.16
2018-12-16T06:50:20.746Z,73.13
2018-12-16T06:51:20.047Z,73.24
2018-12-16T06:52:20.037Z,72.40
2018-12-16T06:53:20.035Z,72.30
2018-12-16T06:54:20.022Z,71.98
2018-12-16T06:55:19.998Z,73.34
2018-12-16T06:56:19.998Z,72.71
2018-12-16T06:57:28.328Z,72.30
2018-12-16T06:58:19.970Z,72.19
2018-12-16T06:59:19.976Z,71.04
2018-12-16T07:00:27.777Z,70.83
2018-12-16T07:01:28.253Z,71.39
2018-12-16T07:02:31.409Z,70.52
2018-12-16T07:03:27.228Z,70.52
2018-12-16T07:04:27.720Z,68.85
2018-12-16T07:05:27.197Z,69.09
2018-12-16T07:06:27.673Z,69.82
2018-12-16T07:07:28.123Z,69.12
2018-12-16T07:08:27.676Z,68.80
2018-12-16T07:09:28.130Z,69.01
2018-12-16T07:10:28.581Z,70.79
2018-12-16T07:11:28.245Z,70.48
2018-12-16T07:12:19.820Z,70.76
2018-12-16T07:13:27.003Z,69.51
2018-12-16T07:14:28.480Z,71.39
2018-12-16T07:15:27.938Z,71.28
2018-12-16T07:16:27.429Z,70.76
2018-12-16T07:17:26.925Z,69.92
2018-12-16T07:18:28.966Z,70.24
2018-12-16T07:19:27.216Z,70.76
2018-12-16T07:20:19.765Z,71.08
2018-12-16T07:21:19.779Z,70.86
2018-12-16T07:22:19.714Z,70.68
2018-12-16T07:23:19.729Z,72.33
2018-12-16T07:24:19.800Z,71.70
2018-12-16T07:25:19.684Z,72.02
2018-12-16T07:26:19.712Z,72.02
2018-12-16T07:27:19.739Z,71.28
2018-12-16T07:28:19.656Z,71.11
2018-12-16T07:29:19.646Z,72.47
2018-12-16T07:30:19.638Z,72.78
2018-12-16T07:31:19.626Z,72.15
2018-12-16T07:32:19.619Z,71.42
2018-12-16T07:33:19.612Z,72.43
2018-12-16T07:34:19.588Z,71.28
2018-12-16T07:35:19.585Z,70.90
2018-12-16T07:36:19.579Z,70.90
2018-12-16T07:37:19.606Z,71.59
2018-12-16T07:38:19.575Z,70.03
2018-12-16T07:39:19.550Z,69.92
2018-12-16T07:40:19.564Z,69.51
2018-12-16T07:41:19.525Z,69.51
2018-12-16T07:42:19.511Z,69.33
2018-12-16T07:43:19.544Z,67.21
2018-12-16T07:44:19.492Z,66.30
2018-12-16T07:45:21.050Z,67.24
2018-12-16T07:46:19.470Z,66.33
2018-12-16T07:47:19.510Z,66.43
2018-12-16T07:48:20.461Z,66.01
2018-12-16T07:49:19.450Z,65.80
2018-12-16T07:50:19.433Z,65.70
2018-12-16T07:51:19.415Z,65.36
2018-12-16T07:52:20.504Z,65.67
2018-12-16T07:54:16.063Z,66.06
2018-12-16T07:55:13.485Z,65.56
2018-12-16T07:56:12.498Z,65.88
2018-12-16T07:57:13.978Z,66.08
2018-12-16T07:58:11.381Z,64.83
2018-12-16T07:59:11.391Z,65.49
2018-12-16T08:00:13.982Z,65.36
2018-12-16T08:01:14.017Z,65.04
2018-12-16T08:02:11.358Z,64.73
2018-12-16T08:03:11.339Z,65.14
2018-12-16T08:04:11.362Z,64.83
2018-12-16T08:05:11.988Z,65.04
2018-12-16T08:06:11.351Z,64.20
2018-12-16T08:07:11.302Z,65.14
2018-12-16T08:08:11.281Z,66.30
2018-12-16T08:09:12.006Z,66.50
2018-12-16T08:10:11.990Z,65.56
2018-12-16T08:11:11.250Z,66.30
2018-12-16T08:12:11.972Z,68.07
2018-12-16T08:13:11.253Z,67.31
2018-12-16T08:14:11.228Z,67.41
2018-12-16T08:15:11.240Z,67.10
2018-12-16T08:16:11.202Z,67.00
2018-12-16T08:17:11.180Z,67.62
2018-12-16T08:18:11.170Z,68.46
2018-12-16T08:19:11.162Z,67.34
2018-12-16T08:20:11.174Z,67.52
2018-12-16T08:21:11.135Z,67.73
2018-12-16T08:22:11.157Z,67.41
2018-12-16T08:23:11.983Z,66.58
2018-12-16T08:24:11.113Z,66.68
2018-12-16T08:25:11.113Z,66.58
2018-12-16T08:26:11.092Z,65.11
2018-12-16T08:27:11.092Z,65.84
2018-12-16T08:28:11.089Z,65.84
2018-12-16T08:29:11.078Z,65.33
2018-12-16T08:30:11.971Z,66.27
2018-12-16T08:31:11.047Z,66.47
2018-12-16T08:32:11.027Z,66.89
2018-12-16T08:33:11.024Z,66.06
2018-12-16T08:34:11.035Z,66.24
2018-12-16T08:35:11.007Z,65.61
2018-12-16T08:36:10.991Z,65.19
2018-12-16T08:37:10.977Z,64.77
2018-12-16T08:38:10.977Z,64.07
2018-12-16T08:39:10.957Z,64.87
2018-12-16T08:40:11.488Z,64.07
2018-12-16T08:41:11.488Z,64.49
2018-12-16T08:42:10.923Z,64.39
2018-12-16T08:43:10.911Z,65.11
2018-12-16T08:44:10.925Z,65.43
2018-12-16T08:45:10.909Z,65.95
2018-12-16T08:46:11.497Z,66.06
2018-12-16T08:47:10.881Z,65.11
2018-12-16T08:48:11.490Z,66.58
2018-12-16T08:49:10.849Z,66.47
2018-12-16T08:50:10.842Z,65.92
2018-12-16T08:51:11.468Z,65.50
2018-12-16T08:52:10.821Z,65.11
2018-12-16T08:53:11.468Z,64.70
2018-12-16T08:54:10.805Z,64.39
2018-12-16T08:55:10.798Z,65.95
2018-12-16T08:56:10.781Z,65.53
2018-12-16T08:57:10.765Z,65.64
2018-12-16T08:58:10.757Z,65.50
2018-12-16T08:59:10.745Z,64.39
2018-12-16T09:00:10.745Z,65.01
2018-12-16T09:01:13.467Z,67.00
2018-12-16T09:02:11.966Z,65.09
2018-12-16T09:03:11.474Z,64.49
2018-12-16T09:04:10.697Z,68.43
2018-12-16T09:05:11.483Z,67.07
2018-12-16T09:06:10.673Z,64.25
2018-12-16T09:07:11.474Z,64.67
2018-12-16T09:08:10.662Z,63.65
2018-12-16T09:09:11.516Z,63.23
2018-12-16T09:10:10.635Z,63.44
2018-12-16T09:11:10.620Z,65.22
2018-12-16T09:12:10.607Z,63.96
2018-12-16T09:13:10.593Z,64.28
2018-12-16T09:14:12.492Z,64.90
2018-12-16T09:15:10.579Z,64.10
2018-12-16T09:16:11.460Z,64.90
2018-12-16T09:17:11.477Z,65.01
2018-12-16T09:18:10.570Z,64.80
2018-12-16T09:19:10.534Z,65.74
2018-12-16T09:20:10.523Z,65.43
2018-12-16T09:21:10.512Z,65.53
2018-12-16T09:22:11.468Z,65.53
2018-12-16T09:23:10.499Z,65.64
2018-12-16T09:24:10.481Z,66.06
2018-12-16T09:25:10.512Z,64.80
2018-12-16T09:26:10.480Z,64.39
2018-12-16T09:27:10.453Z,65.01
2018-12-16T09:28:10.450Z,63.76
2018-12-16T09:29:10.431Z,63.86
2018-12-16T09:30:10.413Z,62.92
2018-12-16T09:31:10.468Z,62.40
2018-12-16T09:32:10.399Z,63.13
2018-12-16T09:33:10.391Z,63.96
2018-12-16T09:34:11.005Z,63.02
2018-12-16T09:35:10.358Z,62.92
2018-12-16T09:36:10.354Z,62.74
2018-12-16T09:37:11.971Z,63.65
2018-12-16T09:38:11.969Z,63.76
2018-12-16T09:39:10.316Z,62.92
2018-12-16T09:40:10.973Z,63.13
2018-12-16T09:41:11.376Z,63.44
2018-12-16T09:42:11.009Z,63.37
2018-12-16T09:43:11.486Z,63.37
2018-12-16T09:44:13.981Z,63.65
2018-12-16T09:45:12.953Z,64.28
2018-12-16T09:46:10.972Z,63.65
2018-12-16T09:47:11.963Z,63.76
2018-12-16T09:48:12.006Z,63.89
2018-12-16T09:49:12.014Z,63.34
2018-12-16T09:50:10.978Z,63.37
2018-12-16T09:51:10.190Z,63.06
2018-12-16T09:52:12.005Z,63.89
2018-12-16T09:53:10.969Z,64.70
2018-12-16T09:54:13.971Z,63.44
2018-12-16T09:55:12.982Z,64.17
2018-12-16T09:56:13.002Z,63.65
2018-12-16T09:57:13.001Z,63.34
2018-12-16T09:58:10.128Z,64.41
2018-12-16T09:59:12.988Z,64.39
2018-12-16T10:00:11.986Z,63.65
2018-12-16T10:01:11.000Z,63.44
2018-12-16T10:02:10.114Z,62.82
2018-12-16T10:03:11.962Z,63.76
2018-12-16T10:04:10.069Z,63.47
2018-12-16T10:05:10.974Z,64.70
2018-12-16T10:06:11.973Z,63.34
2018-12-16T10:07:10.972Z,63.02
2018-12-16T10:08:12.979Z,63.57
2018-12-16T10:09:10.004Z,62.84
2018-12-16T10:10:10.995Z,63.26
2018-12-16T10:11:11.509Z,62.22
2018-12-16T10:12:14.510Z,63.26
2018-12-16T10:13:10.476Z,62.53
2018-12-16T10:14:09.968Z,61.17
2018-12-16T10:15:10.505Z,61.27
2018-12-16T10:16:10.476Z,61.27
2018-12-16T10:17:13.980Z,62.01
2018-12-16T10:18:11.501Z,60.96
2018-12-16T10:19:10.976Z,61.80
2018-12-16T10:20:12.506Z,62.01
2018-12-16T10:21:12.509Z,62.22
2018-12-16T10:22:10.992Z,62.11
2018-12-16T10:23:11.512Z,62.32
2018-12-16T10:24:09.840Z,63.16
2018-12-16T10:25:10.969Z,63.89
2018-12-16T10:26:09.833Z,63.13
2018-12-16T10:27:12.992Z,62.50
2018-12-16T10:28:10.471Z,62.82
2018-12-16T10:29:10.517Z,62.84
2018-12-16T10:30:11.478Z,62.71
2018-12-16T10:31:10.481Z,63.02
2018-12-16T10:32:13.962Z,64.39
2018-12-16T10:33:11.978Z,63.44
2018-12-16T10:34:14.486Z,62.71
2018-12-16T10:35:12.887Z,63.23
2018-12-16T10:36:09.723Z,62.84
2018-12-16T10:37:12.517Z,63.79
2018-12-16T10:38:09.711Z,63.47
2018-12-16T10:39:09.712Z,62.84
2018-12-16T10:40:12.513Z,63.68
2018-12-16T10:41:10.676Z,63.89
2018-12-16T10:42:11.467Z,64.20
2018-12-16T10:43:10.487Z,64.10
2018-12-16T10:44:15.487Z,64.73
2018-12-16T10:45:12.506Z,63.37
2018-12-16T10:46:09.624Z,64.07
2018-12-16T10:47:09.609Z,63.34
2018-12-16T10:48:13.186Z,63.47
2018-12-16T10:49:14.478Z,63.37
2018-12-16T10:50:11.506Z,64.20
2018-12-16T10:51:10.573Z,63.79
2018-12-16T10:52:10.591Z,63.55
2018-12-16T10:53:10.475Z,63.79
2018-12-16T10:54:12.498Z,63.34
2018-12-16T10:55:10.529Z,63.76
2018-12-16T10:56:10.526Z,63.76
2018-12-16T10:57:09.530Z,62.92
2018-12-16T10:58:10.009Z,62.53
2018-12-16T10:59:09.500Z,63.06
2018-12-16T11:00:10.529Z,63.37
2018-12-16T11:01:09.466Z,64.00
2018-12-16T11:02:12.495Z,62.74
2018-12-16T11:03:09.970Z,63.37
2018-12-16T11:04:09.451Z,64.00
2018-12-16T11:05:09.978Z,63.16
2018-12-16T11:06:10.695Z,63.96
2018-12-16T11:07:09.414Z,63.68
2018-12-16T11:08:11.006Z,63.76
2018-12-16T11:09:16.996Z,62.74
2018-12-16T11:10:09.371Z,63.40
2018-12-16T11:11:09.955Z,64.23
2018-12-16T11:12:11.039Z,63.71
2018-12-16T11:13:10.502Z,64.86
2018-12-16T11:14:15.534Z,64.34
2018-12-16T11:15:09.335Z,65.25
2018-12-16T11:16:09.327Z,65.36
2018-12-16T11:17:09.308Z,65.14
2018-12-16T11:18:09.988Z,65.04
2018-12-16T11:19:12.481Z,64.83
2018-12-16T11:20:09.276Z,64.10
2018-12-16T11:21:09.982Z,64.00
2018-12-16T11:22:11.483Z,64.51
2018-12-16T11:23:11.994Z,64.65
2018-12-16T11:24:12.496Z,64.83
2018-12-16T11:25:26.020Z,65.56
2018-12-16T11:27:06.290Z,64.34
2018-12-16T11:28:02.781Z,64.23
2018-12-16T11:30:12.388Z,66.11
2018-12-16T11:30:57.367Z,64.54
2018-12-16T11:31:55.956Z,64.86
2018-12-16T11:32:58.375Z,64.03
2018-12-16T11:33:58.850Z,64.34
2018-12-16T11:35:02.881Z,64.34
2018-12-16T11:35:56.876Z,63.53
2018-12-16T11:36:58.855Z,63.50
2018-12-16T11:38:01.854Z,63.40
2018-12-16T11:38:58.856Z,63.29
2018-12-16T11:39:58.862Z,63.40
2018-12-16T11:40:58.353Z,62.77
2018-12-16T11:41:56.859Z,62.87
2018-12-16T11:42:57.363Z,63.08
2018-12-16T11:43:58.368Z,62.87
2018-12-16T11:45:24.362Z,62.14
2018-12-16T11:45:57.854Z,62.66
2018-12-16T11:46:56.344Z,62.45
2018-12-16T11:47:56.844Z,63.60
2018-12-16T11:48:57.850Z,63.47
2018-12-16T11:49:57.365Z,62.43
2018-12-16T11:50:56.881Z,62.11
2018-12-16T11:51:55.757Z,61.27
2018-12-16T11:53:00.404Z,64.31
2018-12-16T11:53:56.356Z,71.64
2018-12-16T11:54:57.429Z,67.04
2018-12-16T11:55:57.386Z,59.34
2018-12-16T11:57:00.570Z,59.37
2018-12-16T11:57:56.907Z,60.02
2018-12-16T11:58:56.363Z,60.15
2018-12-16T11:59:56.421Z,61.20
2018-12-16T12:00:58.390Z,61.27
2018-12-16T12:01:58.387Z,62.74
2018-12-16T12:02:58.380Z,60.75
2018-12-16T12:03:55.627Z,60.65
2018-12-16T12:04:55.854Z,59.53
2018-12-16T12:05:56.373Z,61.38
2018-12-16T12:06:56.359Z,61.17
2018-12-16T12:07:55.600Z,60.78
2018-12-16T12:08:55.580Z,62.32
2018-12-16T12:10:04.900Z,61.38
2018-12-16T12:10:57.389Z,60.52
2018-12-16T12:11:56.401Z,60.62
2018-12-16T12:12:56.341Z,60.93
2018-12-16T12:13:58.385Z,61.25
2018-12-16T12:14:55.535Z,59.05
2018-12-16T12:16:00.473Z,60.93
2018-12-16T12:16:55.527Z,59.58
2018-12-16T12:17:58.519Z,60.10
2018-12-16T12:18:55.473Z,61.25
2018-12-16T12:19:56.339Z,59.58
2018-12-16T12:20:58.520Z,59.16
2018-12-16T12:21:56.388Z,59.89
2018-12-16T12:22:58.368Z,60.44
2018-12-16T12:23:55.434Z,61.25
2018-12-16T12:24:56.340Z,60.62
2018-12-16T12:25:55.854Z,61.15
2018-12-16T12:26:55.466Z,61.46
2018-12-16T12:27:56.378Z,59.58
2018-12-16T12:28:56.926Z,61.25
2018-12-16T12:29:55.351Z,60.54
2018-12-16T12:30:56.347Z,61.17
2018-12-16T12:31:55.907Z,61.98
2018-12-16T12:32:55.959Z,61.25
2018-12-16T12:33:55.854Z,61.98
2018-12-16T12:34:55.940Z,61.15
2018-12-16T12:35:56.951Z,60.62
2018-12-16T12:36:56.891Z,61.04
2018-12-16T12:37:55.295Z,61.35
2018-12-16T12:38:55.266Z,61.35
2018-12-16T12:39:55.378Z,61.46
2018-12-16T12:40:55.247Z,62.40
2018-12-16T12:41:57.046Z,61.15
2018-12-16T12:42:56.311Z,61.25
2018-12-16T12:44:01.370Z,61.25
2018-12-16T12:44:56.886Z,75.01
2018-12-16T12:45:55.188Z,68.37
2018-12-16T12:46:55.177Z,66.25
2018-12-16T12:47:55.878Z,68.72
2018-12-16T12:48:56.843Z,67.05
2018-12-16T12:49:58.846Z,61.11
2018-12-16T12:50:55.131Z,62.05
2018-12-16T12:51:55.114Z,62.36
2018-12-16T12:52:55.099Z,59.65
2018-12-16T12:53:55.094Z,59.44
2018-12-16T12:54:55.847Z,57.38
2018-12-16T12:55:55.080Z,57.62